Time;durP1;ratioP1;P1;durP2;ratioP2;P2;SDS_P1;SDS_P2;PMS_P1;PMS_P2;Temp;Humidity;BMP_temperature;BMP_pressure;BME280_temperature;BME280_humidity;BME280_pressure;Samples;Min_cycle;Max_cycle;Signal;HPM_P1;HPM_P2
2022/12/05 00:00:22;;;;;;;22.90;12.47;;;4.80;99.90;;;;;;5000128;28;22943;-63
2022/12/05 00:02:50;;;;;;;20.83;11.83;;;4.80;99.90;;;;;;4999635;28;20229;-63
2022/12/05 00:05:17;;;;;;;21.40;12.47;;;4.80;99.90;;;;;;4997074;28;20231;-64
2022/12/05 00:07:44;;;;;;;20.20;11.80;;;4.80;99.90;;;;;;5005244;28;20209;-64
2022/12/05 00:10:11;;;;;;;23.80;11.97;;;4.80;99.90;;;;;;4973219;28;20210;-63
2022/12/05 00:12:38;;;;;;;22.33;11.77;;;4.80;99.90;;;;;;4974562;28;21988;-64
2022/12/05 00:15:08;;;;;;;19.30;11.20;;;4.90;99.90;;;;;;5003784;28;20305;-64
2022/12/05 00:17:35;;;;;;;21.27;11.40;;;4.80;99.90;;;;;;5008766;28;20198;-65
2022/12/05 00:20:04;;;;;;;16.90;11.33;;;4.80;99.90;;;;;;4998402;28;20751;-63
2022/12/05 00:22:31;;;;;;;19.87;10.30;;;4.80;99.90;;;;;;4999551;28;20712;-64
2022/12/05 00:24:57;;;;;;;21.93;11.87;;;4.80;99.90;;;;;;4979042;28;20233;-63
2022/12/05 00:27:24;;;;;;;25.00;12.17;;;4.80;99.90;;;;;;4994306;28;20210;-64
2022/12/05 00:29:51;;;;;;;25.10;12.93;;;4.90;99.90;;;;;;4989917;28;20210;-64
2022/12/05 00:32:18;;;;;;;22.90;12.73;;;4.80;99.90;;;;;;4989869;28;20210;-64
2022/12/05 00:34:45;;;;;;;19.27;12.00;;;4.90;99.90;;;;;;4989118;28;20226;-64
2022/12/05 00:37:13;;;;;;;19.97;11.83;;;4.90;99.90;;;;;;5008562;28;20194;-64
2022/12/05 00:39:40;;;;;;;20.43;11.97;;;4.90;99.90;;;;;;4978943;28;20190;-64
2022/12/05 00:42:06;;;;;;;24.63;11.87;;;4.90;99.90;;;;;;4997570;28;20660;-64
2022/12/05 00:44:33;;;;;;;20.63;11.43;;;4.90;99.90;;;;;;4991921;28;20683;-64
2022/12/05 00:47:00;;;;;;;20.83;11.53;;;4.90;99.90;;;;;;5007560;28;20207;-63
2022/12/05 00:49:27;;;;;;;20.87;12.20;;;4.90;99.90;;;;;;4999419;28;20202;-63
2022/12/05 00:51:54;;;;;;;18.93;11.23;;;4.90;99.90;;;;;;4987560;28;20202;-64
2022/12/05 00:54:22;;;;;;;23.97;12.20;;;4.90;99.90;;;;;;5005900;28;20588;-63
2022/12/05 00:56:51;;;;;;;20.67;12.43;;;4.90;99.90;;;;;;4977504;28;20225;-63
2022/12/05 00:59:19;;;;;;;23.37;12.50;;;4.90;99.90;;;;;;4985920;28;20202;-63
2022/12/05 01:01:47;;;;;;;22.20;11.83;;;4.90;99.90;;;;;;5001561;28;20203;-63
2022/12/05 01:04:17;;;;;;;24.87;12.47;;;4.90;99.90;;;;;;4994656;28;20259;-65
2022/12/05 01:06:44;;;;;;;19.93;11.73;;;4.80;99.90;;;;;;4995413;28;20210;-63
2022/12/05 01:09:12;;;;;;;23.93;12.83;;;4.80;99.90;;;;;;5007294;28;20201;-63
2022/12/05 01:11:41;;;;;;;21.80;12.73;;;4.90;99.90;;;;;;4969710;28;20206;-64
2022/12/05 01:14:08;;;;;;;23.13;12.87;;;4.90;99.90;;;;;;4977293;28;20904;-63
2022/12/05 01:16:36;;;;;;;21.33;12.17;;;4.90;99.90;;;;;;5001832;28;20561;-63
2022/12/05 01:19:06;;;;;;;21.77;12.77;;;4.90;99.90;;;;;;4995048;28;20209;-63
2022/12/05 01:21:33;;;;;;;23.93;12.07;;;4.90;99.90;;;;;;4993461;28;20205;-63
2022/12/05 01:24:00;;;;;;;22.90;12.63;;;4.90;99.90;;;;;;5003730;28;20237;-63
2022/12/05 01:26:26;;;;;;;23.10;11.60;;;4.80;99.90;;;;;;4978253;28;20771;-63
2022/12/05 01:28:55;;;;;;;22.47;12.10;;;4.90;99.90;;;;;;4989695;28;20202;-63
2022/12/05 01:31:24;;;;;;;22.13;12.33;;;4.80;99.90;;;;;;4990358;28;20236;-63
2022/12/05 01:33:53;;;;;;;23.17;12.57;;;4.80;99.90;;;;;;4998879;28;20233;-63
2022/12/05 01:36:20;;;;;;;23.83;12.17;;;4.80;99.90;;;;;;4997150;28;20590;-63
2022/12/05 01:38:47;;;;;;;22.10;12.20;;;4.80;99.90;;;;;;4985858;28;20718;-64
2022/12/05 01:41:16;;;;;;;23.20;12.23;;;4.80;99.90;;;;;;4975829;28;21850;-63
2022/12/05 01:44:00;;;;;;;23.70;13.13;;;4.80;99.90;;;;;;4992773;28;20226;-63
2022/12/05 01:46:29;;;;;;;21.80;12.20;;;4.90;99.90;;;;;;4992159;28;20208;-63
2022/12/05 01:49:01;;;;;;;23.00;11.53;;;4.80;99.90;;;;;;5001916;28;20217;-63
2022/12/05 01:51:28;;;;;;;23.93;12.53;;;4.90;99.90;;;;;;4996367;28;20194;-64
2022/12/05 01:53:54;;;;;;;19.83;11.30;;;4.90;99.90;;;;;;4990081;28;20202;-64
2022/12/05 01:56:22;;;;;;;24.33;12.03;;;4.90;99.90;;;;;;4979443;28;20199;-63
2022/12/05 01:58:49;;;;;;;21.50;10.87;;;4.80;99.90;;;;;;4988555;28;20202;-63
2022/12/05 02:01:18;;;;;;;23.50;12.33;;;4.90;99.90;;;;;;4992141;28;20206;-63
2022/12/05 02:03:49;;;;;;;23.37;12.83;;;4.90;99.90;;;;;;5007067;28;20234;-63
2022/12/05 02:06:16;;;;;;;25.50;12.20;;;4.80;99.90;;;;;;5001167;28;20751;-63
2022/12/05 02:08:44;;;;;;;21.40;11.37;;;4.90;99.90;;;;;;4991213;28;20431;-63
2022/12/05 02:11:11;;;;;;;21.63;11.80;;;4.90;99.90;;;;;;5000058;28;20224;-63
2022/12/05 02:14:06;;;;;;;19.27;11.57;;;4.90;99.90;;;;;;4963948;28;20699;-64
2022/12/05 02:16:47;;;;;;;20.67;11.37;;;4.90;99.90;;;;;;4986598;28;20198;-63
2022/12/05 02:19:47;;;;;;;21.00;11.43;;;4.90;99.90;;;;;;5002865;28;20195;-63
2022/12/05 02:23:05;;;;;;;21.73;11.80;;;4.90;99.90;;;;;;4997064;28;20249;-63
2022/12/05 02:25:50;;;;;;;25.63;12.67;;;4.90;99.90;;;;;;4912246;28;20504;-64
2022/12/05 02:28:45;;;;;;;18.73;11.10;;;4.90;99.90;;;;;;4884945;28;21025;-65
2022/12/05 02:31:18;;;;;;;23.17;11.60;;;4.90;99.90;;;;;;4991366;28;20204;-64
2022/12/05 02:33:50;;;;;;;21.10;11.30;;;4.90;99.90;;;;;;4991739;28;20235;-63
2022/12/05 02:36:22;;;;;;;18.77;11.43;;;4.90;99.90;;;;;;4985873;28;20221;-63
2022/12/05 02:38:57;;;;;;;19.50;10.60;;;4.90;99.90;;;;;;4967295;28;20234;-64
2022/12/05 02:41:30;;;;;;;24.40;12.07;;;4.90;99.90;;;;;;4988079;28;20198;-63
2022/12/05 02:44:01;;;;;;;21.63;11.47;;;4.90;99.90;;;;;;4942868;28;20234;-64
2022/12/05 02:46:32;;;;;;;19.27;11.37;;;5.00;99.90;;;;;;4986630;28;20647;-63
2022/12/05 02:49:02;;;;;;;22.53;11.23;;;5.00;99.90;;;;;;4978481;28;20308;-64
2022/12/05 02:51:35;;;;;;;19.40;11.40;;;5.00;99.90;;;;;;4987296;28;20195;-64
2022/12/05 02:54:05;;;;;;;20.80;11.33;;;5.00;99.90;;;;;;4967510;28;20222;-64
2022/12/05 02:56:33;;;;;;;21.70;11.13;;;5.00;99.90;;;;;;4985863;28;20225;-64
2022/12/05 02:59:01;;;;;;;22.03;11.90;;;5.00;99.90;;;;;;4954815;28;20689;-64
2022/12/05 03:01:31;;;;;;;19.53;11.03;;;5.00;99.90;;;;;;4969251;28;20203;-63
2022/12/05 03:04:01;;;;;;;19.73;10.70;;;5.00;99.90;;;;;;4962328;28;21480;-63
2022/12/05 03:06:30;;;;;;;21.40;10.93;;;4.90;99.90;;;;;;4980680;28;20219;-63
2022/12/05 03:09:02;;;;;;;28.40;11.77;;;5.00;99.90;;;;;;4955568;28;20235;-65
2022/12/05 03:11:33;;;;;;;21.13;11.50;;;5.00;99.90;;;;;;4970597;28;20219;-63
2022/12/05 03:14:04;;;;;;;18.97;10.63;;;4.90;99.90;;;;;;4967010;28;20233;-64
2022/12/05 03:16:38;;;;;;;20.47;10.67;;;5.00;99.90;;;;;;4961886;28;20687;-64
2022/12/05 03:19:10;;;;;;;18.10;10.97;;;5.00;99.90;;;;;;4969688;28;20245;-64
2022/12/05 03:21:42;;;;;;;21.83;11.07;;;5.00;99.90;;;;;;4981645;28;20205;-64
2022/12/05 03:24:13;;;;;;;22.37;11.37;;;5.00;99.90;;;;;;4962272;28;20238;-63
2022/12/05 03:26:50;;;;;;;19.40;10.97;;;5.00;99.90;;;;;;4956008;28;20226;-63
2022/12/05 03:29:25;;;;;;;19.80;11.47;;;5.00;99.90;;;;;;4972533;28;20230;-64
2022/12/05 03:32:05;;;;;;;22.17;10.77;;;5.00;99.90;;;;;;4958685;28;20784;-63
2022/12/05 03:34:42;;;;;;;17.53;10.43;;;5.00;99.90;;;;;;4997800;28;20233;-64
2022/12/05 03:37:13;;;;;;;19.03;10.67;;;5.00;99.90;;;;;;4994088;28;20225;-63
2022/12/05 03:39:48;;;;;;;21.13;11.07;;;5.00;99.90;;;;;;4963153;28;20976;-63
2022/12/05 03:42:20;;;;;;;18.83;10.60;;;5.00;99.90;;;;;;4991443;28;20234;-63
2022/12/05 03:44:54;;;;;;;20.57;11.43;;;5.10;99.90;;;;;;4964781;28;21066;-64
2022/12/05 03:47:29;;;;;;;16.33;9.80;;;5.10;99.90;;;;;;4987921;28;20261;-64
2022/12/05 03:50:01;;;;;;;18.47;10.23;;;5.10;99.90;;;;;;4992456;28;20205;-63
2022/12/05 03:52:33;;;;;;;17.30;10.13;;;5.10;99.90;;;;;;4999747;28;20208;-64
2022/12/05 03:55:04;;;;;;;16.00;9.77;;;5.10;99.90;;;;;;4995993;28;20425;-63
2022/12/05 03:57:35;;;;;;;15.93;9.63;;;5.10;99.90;;;;;;4982239;28;20212;-64
2022/12/05 04:00:06;;;;;;;15.17;9.23;;;5.10;99.90;;;;;;4969558;28;20213;-63
2022/12/05 04:02:44;;;;;;;15.83;9.00;;;5.10;99.90;;;;;;4981331;28;20209;-64
2022/12/05 04:05:19;;;;;;;14.97;8.60;;;5.10;99.90;;;;;;5008496;28;20226;-63
2022/12/05 04:07:48;;;;;;;15.57;8.83;;;5.10;99.90;;;;;;5000950;28;20226;-63
2022/12/05 04:10:20;;;;;;;14.60;9.20;;;5.10;99.90;;;;;;4996492;28;20222;-63
2022/12/05 04:12:48;;;;;;;15.23;8.63;;;5.20;99.90;;;;;;4985082;28;20211;-63
2022/12/05 04:15:26;;;;;;;17.17;8.23;;;5.10;99.90;;;;;;5000283;28;20219;-64
2022/12/05 04:17:57;;;;;;;14.00;8.57;;;5.20;99.90;;;;;;4989128;28;20209;-63
2022/12/05 04:23:16;;;;;;;15.07;7.83;;;5.20;99.90;;;;;;5010318;28;20617;-63
2022/12/05 04:25:53;;;;;;;17.63;8.63;;;5.30;99.90;;;;;;4994044;28;20206;-63
2022/12/05 04:28:26;;;;;;;13.00;7.90;;;5.20;99.90;;;;;;4991823;28;20287;-64
2022/12/05 04:31:03;;;;;;;15.00;8.07;;;5.30;99.90;;;;;;4963252;28;20994;-64
2022/12/05 04:33:40;;;;;;;11.60;7.37;;;5.20;99.90;;;;;;4991291;28;20231;-64
2022/12/05 04:36:13;;;;;;;12.50;8.23;;;5.30;99.90;;;;;;4996679;28;20207;-63
2022/12/05 04:38:46;;;;;;;14.87;8.63;;;5.30;99.90;;;;;;4989594;28;20865;-63
2022/12/05 04:41:17;;;;;;;14.03;8.13;;;5.30;99.90;;;;;;4994829;28;20233;-64
2022/12/05 04:43:47;;;;;;;15.07;8.50;;;5.30;99.90;;;;;;4990549;28;20227;-63
2022/12/05 04:46:16;;;;;;;15.17;8.77;;;5.20;99.90;;;;;;4986976;28;20221;-64
2022/12/05 04:48:49;;;;;;;18.57;8.17;;;5.30;99.90;;;;;;4975531;28;20255;-64
2022/12/05 04:51:20;;;;;;;19.47;8.67;;;5.30;99.90;;;;;;4977834;28;20231;-63
2022/12/05 04:53:49;;;;;;;13.90;8.30;;;5.30;99.90;;;;;;4990108;28;20231;-64
2022/12/05 04:56:19;;;;;;;16.07;8.43;;;5.30;99.90;;;;;;4970041;28;20764;-65
2022/12/05 04:58:46;;;;;;;14.73;7.57;;;5.40;99.90;;;;;;4975348;28;20643;-65
2022/12/05 05:01:17;;;;;;;13.57;7.80;;;5.40;99.90;;;;;;4986287;28;20213;-64
2022/12/05 05:03:50;;;;;;;13.47;8.50;;;5.40;99.90;;;;;;4972405;28;20224;-64
2022/12/05 05:06:17;;;;;;;12.33;8.20;;;5.40;99.90;;;;;;5013708;28;20205;-63
2022/12/05 05:08:49;;;;;;;15.27;8.40;;;5.40;99.90;;;;;;4984368;28;20208;-64
2022/12/05 05:11:19;;;;;;;15.20;8.17;;;5.40;99.90;;;;;;4990997;28;20213;-64
2022/12/05 05:13:46;;;;;;;13.53;7.37;;;5.60;99.90;;;;;;4973049;28;21122;-64
2022/12/05 05:16:17;;;;;;;13.53;8.87;;;5.50;99.90;;;;;;4994015;28;20206;-64
2022/12/05 05:18:45;;;;;;;15.00;8.23;;;5.40;99.90;;;;;;4962360;28;20309;-64
2022/12/05 05:21:18;;;;;;;11.97;7.90;;;5.50;99.90;;;;;;4982888;28;20244;-64
2022/12/05 05:23:45;;;;;;;11.27;7.33;;;5.50;99.90;;;;;;4970992;28;20226;-64
2022/12/05 05:26:12;;;;;;;12.10;7.33;;;5.60;99.90;;;;;;4987726;28;20712;-65
2022/12/05 05:28:39;;;;;;;12.83;7.27;;;5.50;99.90;;;;;;4977189;28;20230;-64
2022/12/05 05:31:07;;;;;;;12.80;7.00;;;5.60;99.90;;;;;;4989727;28;20222;-65
2022/12/05 05:33:34;;;;;;;12.73;8.00;;;5.60;99.90;;;;;;4947014;28;20259;-64
2022/12/05 05:36:08;;;;;;;12.17;7.30;;;5.60;99.90;;;;;;4980321;28;20200;-65
2022/12/05 05:38:36;;;;;;;15.03;8.00;;;5.60;99.90;;;;;;4971587;28;20821;-64
2022/12/05 05:41:04;;;;;;;14.07;8.50;;;5.60;99.90;;;;;;4936684;28;20268;-64
2022/12/05 05:43:31;;;;;;;19.43;9.33;;;5.60;99.90;;;;;;4960114;28;21749;-64
2022/12/05 05:45:58;;;;;;;16.03;8.27;;;5.60;99.90;;;;;;4973568;28;20214;-64
2022/12/05 05:48:25;;;;;;;12.90;8.00;;;5.70;99.90;;;;;;4923601;28;20211;-65
2022/12/05 05:50:51;;;;;;;11.80;7.23;;;5.70;99.90;;;;;;4968731;28;20347;-64
2022/12/05 05:53:19;;;;;;;11.83;7.30;;;5.80;99.90;;;;;;4960737;28;20217;-65
2022/12/05 05:55:46;;;;;;;10.87;6.37;;;5.80;99.90;;;;;;4969674;28;20726;-65
2022/12/05 05:58:13;;;;;;;10.73;5.93;;;5.80;99.90;;;;;;4964248;28;20231;-65
2022/12/05 06:00:40;;;;;;;10.23;5.37;;;5.80;99.90;;;;;;4984405;28;20717;-65
2022/12/05 06:03:08;;;;;;;8.07;5.03;;;5.90;99.90;;;;;;4952973;28;20751;-66
2022/12/05 06:05:34;;;;;;;7.67;4.27;;;5.90;99.90;;;;;;4966110;28;20240;-65
2022/12/05 06:08:01;;;;;;;6.03;3.97;;;5.90;99.90;;;;;;4986789;28;20203;-65
2022/12/05 06:10:30;;;;;;;4.83;3.43;;;5.90;99.90;;;;;;4950407;28;20231;-65
2022/12/05 06:12:57;;;;;;;3.67;2.73;;;5.90;99.90;;;;;;4982539;28;20252;-65
2022/12/05 06:15:24;;;;;;;3.60;2.47;;;6.00;99.90;;;;;;4972429;28;20588;-65
2022/12/05 06:17:51;;;;;;;2.27;2.07;;;6.00;99.90;;;;;;4974991;28;20818;-65
2022/12/05 06:20:18;;;;;;;2.43;2.07;;;6.10;99.90;;;;;;4941573;28;20218;-66
2022/12/05 06:22:45;;;;;;;3.00;2.40;;;6.10;99.90;;;;;;4980746;28;20226;-65
2022/12/05 06:25:11;;;;;;;2.53;2.00;;;6.10;99.90;;;;;;4973606;28;20234;-65
2022/12/05 06:27:40;;;;;;;2.87;2.30;;;6.10;99.90;;;;;;4954076;28;20222;-65
2022/12/05 06:30:08;;;;;;;3.60;2.77;;;6.10;99.90;;;;;;4972929;28;20238;-65
2022/12/05 06:32:34;;;;;;;4.40;2.70;;;6.10;99.90;;;;;;4975128;28;20727;-65
2022/12/05 06:35:06;;;;;;;3.53;2.67;;;6.10;99.90;;;;;;4961116;28;20264;-65
2022/12/05 06:37:36;;;;;;;2.83;2.53;;;6.20;99.90;;;;;;4987556;28;20867;-65
2022/12/05 06:40:03;;;;;;;3.40;2.50;;;6.20;99.90;;;;;;4987619;28;20203;-66
2022/12/05 06:42:31;;;;;;;3.17;2.60;;;6.20;99.90;;;;;;4982617;28;20204;-64
2022/12/05 06:44:59;;;;;;;4.13;2.70;;;6.20;99.90;;;;;;4981502;28;20818;-65
2022/12/05 06:47:26;;;;;;;2.83;2.50;;;6.20;99.90;;;;;;4987888;28;20211;-65
2022/12/05 06:49:52;;;;;;;3.37;2.53;;;6.20;99.90;;;;;;4962831;28;20215;-66
2022/12/05 06:52:19;;;;;;;2.47;2.10;;;6.20;99.90;;;;;;4989489;28;20199;-65
2022/12/05 06:54:46;;;;;;;2.47;2.10;;;6.20;99.90;;;;;;4989868;28;20209;-65
2022/12/05 06:57:13;;;;;;;7.97;2.90;;;6.20;99.90;;;;;;4983996;28;20210;-65
2022/12/05 06:59:40;;;;;;;6.07;3.00;;;6.20;99.90;;;;;;4984264;28;20207;-64
2022/12/05 07:02:10;;;;;;;3.30;2.50;;;6.20;99.90;;;;;;4971068;28;20712;-65
2022/12/05 07:04:37;;;;;;;2.70;2.23;;;6.20;99.90;;;;;;4944715;28;20238;-64
2022/12/05 07:07:03;;;;;;;5.40;2.73;;;6.20;99.90;;;;;;4940979;28;20230;-65
2022/12/05 07:12:24;;;;;;;3.43;2.87;;;6.20;99.90;;;;;;5028592;27;20610;-63
2022/12/05 07:14:51;;;;;;;2.93;2.27;;;6.20;99.90;;;;;;5035936;28;20206;-64
2022/12/05 07:17:18;;;;;;;3.23;2.03;;;6.30;99.90;;;;;;5029936;28;20773;-63
2022/12/05 07:19:47;;;;;;;3.07;2.23;;;6.20;99.90;;;;;;5003053;28;20213;-64
2022/12/05 07:22:14;;;;;;;3.07;2.40;;;6.30;99.90;;;;;;5024425;28;20215;-63
2022/12/05 07:24:40;;;;;;;4.10;2.73;;;6.20;99.90;;;;;;5035839;28;20197;-63
2022/12/05 07:27:07;;;;;;;3.63;2.57;;;6.20;99.90;;;;;;5019759;28;20236;-63
2022/12/05 07:29:35;;;;;;;2.27;2.07;;;6.30;99.90;;;;;;5028271;28;20220;-62
2022/12/05 07:32:02;;;;;;;2.93;2.27;;;6.20;99.90;;;;;;5024641;28;20225;-63
2022/12/05 07:34:29;;;;;;;3.30;2.43;;;6.20;99.90;;;;;;5039259;28;20218;-63
2022/12/05 07:36:56;;;;;;;3.33;2.70;;;6.20;99.90;;;;;;4997716;28;20224;-63
2022/12/05 07:39:23;;;;;;;4.70;2.77;;;6.20;99.90;;;;;;5035270;28;20213;-63
2022/12/05 07:41:49;;;;;;;3.63;2.87;;;6.20;99.90;;;;;;5022049;28;20785;-63
2022/12/05 07:44:16;;;;;;;3.77;2.90;;;6.20;99.90;;;;;;5025021;28;20839;-63
2022/12/05 07:46:44;;;;;;;4.33;2.80;;;6.20;99.90;;;;;;5027525;28;20213;-63
2022/12/05 07:49:11;;;;;;;3.67;2.70;;;6.20;99.90;;;;;;5038454;28;20200;-63
2022/12/05 07:51:38;;;;;;;3.57;2.83;;;6.20;99.90;;;;;;5003787;28;21223;-63
2022/12/05 07:54:05;;;;;;;3.73;2.57;;;6.20;99.90;;;;;;5040561;28;20292;-63
2022/12/05 07:56:32;;;;;;;4.60;3.20;;;6.20;99.90;;;;;;5025466;28;21448;-63
2022/12/05 07:58:59;;;;;;;4.27;2.80;;;6.30;99.90;;;;;;5027448;28;20196;-63
2022/12/05 08:01:29;;;;;;;4.83;2.90;;;6.20;99.90;;;;;;5039312;28;20199;-63
2022/12/05 08:03:59;;;;;;;3.57;2.77;;;6.20;99.90;;;;;;5032618;28;20211;-63
2022/12/05 08:06:28;;;;;;;3.97;3.00;;;6.20;99.90;;;;;;4998372;28;23313;-64
2022/12/05 08:08:55;;;;;;;3.03;2.73;;;6.20;99.90;;;;;;5042506;28;20218;-64
2022/12/05 08:11:25;;;;;;;6.07;3.17;;;6.20;99.90;;;;;;5040034;28;20396;-64
2022/12/05 08:13:53;;;;;;;4.97;3.40;;;6.20;99.90;;;;;;5026139;28;20207;-64
2022/12/05 08:16:21;;;;;;;3.73;2.97;;;6.20;99.90;;;;;;5021303;28;20213;-65
2022/12/05 08:18:48;;;;;;;3.77;3.13;;;6.20;99.90;;;;;;5030385;28;20207;-64
2022/12/05 08:21:19;;;;;;;3.97;2.80;;;6.20;99.90;;;;;;5010805;28;21433;-64
2022/12/05 08:23:46;;;;;;;3.80;2.63;;;6.20;99.90;;;;;;5008589;28;20201;-64
2022/12/05 08:26:15;;;;;;;4.13;2.90;;;6.20;99.90;;;;;;5026204;28;20204;-63
2022/12/05 08:28:42;;;;;;;4.03;2.93;;;6.20;99.90;;;;;;5016464;28;20435;-64
2022/12/05 08:31:11;;;;;;;5.77;3.50;;;6.20;99.90;;;;;;5012856;28;20217;-64
2022/12/05 08:33:38;;;;;;;3.93;2.70;;;6.20;99.90;;;;;;5016479;28;20211;-64
2022/12/05 08:36:08;;;;;;;5.40;3.63;;;6.20;99.90;;;;;;5004716;28;20231;-64
2022/12/05 08:38:36;;;;;;;3.10;2.80;;;6.20;99.90;;;;;;5002382;28;20205;-64
2022/12/05 08:41:04;;;;;;;4.70;2.83;;;6.20;99.90;;;;;;5024496;28;20207;-65
2022/12/05 08:43:32;;;;;;;5.13;3.30;;;6.20;99.90;;;;;;5017856;28;20231;-64
2022/12/05 08:45:59;;;;;;;4.37;2.83;;;6.30;99.90;;;;;;5006780;28;20213;-64
2022/12/05 08:48:27;;;;;;;3.90;2.43;;;6.20;99.90;;;;;;5014429;28;20208;-63
2022/12/05 08:50:54;;;;;;;4.10;2.90;;;6.20;99.90;;;;;;5030631;28;20241;-63
2022/12/05 08:53:21;;;;;;;4.93;3.07;;;6.20;99.90;;;;;;4996036;28;20683;-64
2022/12/05 08:55:50;;;;;;;3.93;2.60;;;6.30;99.90;;;;;;5012435;28;20222;-64
2022/12/05 08:58:16;;;;;;;5.43;3.03;;;6.20;99.90;;;;;;5030389;28;20767;-64
2022/12/05 09:00:43;;;;;;;5.53;2.70;;;6.30;99.90;;;;;;5014133;28;20928;-64
2022/12/05 09:03:11;;;;;;;3.60;2.70;;;6.30;99.90;;;;;;5000388;28;20193;-64
2022/12/05 09:05:38;;;;;;;3.77;2.97;;;6.20;99.90;;;;;;5019557;28;20201;-64
2022/12/05 09:08:05;;;;;;;3.87;3.00;;;6.30;99.90;;;;;;4989297;28;20242;-64
2022/12/05 09:10:32;;;;;;;3.90;2.73;;;6.20;99.90;;;;;;5009035;28;20236;-63
2022/12/05 09:13:00;;;;;;;3.87;3.03;;;6.20;99.90;;;;;;5020826;28;20217;-63
2022/12/05 09:15:27;;;;;;;8.23;3.23;;;6.30;99.90;;;;;;5026605;28;20225;-63
2022/12/05 09:17:54;;;;;;;3.97;2.97;;;6.30;99.90;;;;;;5005290;28;20221;-63
2022/12/05 09:20:21;;;;;;;4.83;3.67;;;6.30;99.90;;;;;;5020772;28;20215;-63
2022/12/05 09:22:48;;;;;;;3.93;2.90;;;6.30;99.90;;;;;;5023795;28;20696;-63
2022/12/05 09:25:14;;;;;;;4.27;2.90;;;6.30;99.90;;;;;;4966294;28;20266;-63
2022/12/05 09:27:41;;;;;;;4.03;2.90;;;6.30;99.90;;;;;;5019488;28;20277;-63
2022/12/05 09:30:10;;;;;;;4.27;3.03;;;6.20;99.90;;;;;;5015119;28;20315;-63
2022/12/05 09:32:37;;;;;;;3.63;2.90;;;6.20;99.90;;;;;;5013780;28;20654;-63
2022/12/05 09:35:04;;;;;;;4.53;2.80;;;6.30;99.90;;;;;;5008489;28;20226;-63
2022/12/05 09:37:31;;;;;;;5.00;3.73;;;6.30;99.90;;;;;;5022375;28;20224;-63
2022/12/05 09:39:58;;;;;;;7.73;3.70;;;6.20;99.90;;;;;;4988639;28;20692;-64
2022/12/05 09:42:40;;;;;;;5.83;3.40;;;6.30;99.90;;;;;;5015773;28;20206;-63
2022/12/05 09:45:18;;;;;;;5.60;3.10;;;6.20;99.90;;;;;;5008408;28;20201;-64
2022/12/05 09:47:59;;;;;;;4.27;3.17;;;6.20;99.90;;;;;;5024979;28;20297;-64
2022/12/05 09:50:28;;;;;;;4.77;3.63;;;6.30;99.90;;;;;;5008247;28;20225;-63
2022/12/05 09:53:06;;;;;;;5.20;2.73;;;6.30;99.90;;;;;;5018251;28;20278;-64
2022/12/05 09:55:48;;;;;;;4.83;3.00;;;6.30;99.90;;;;;;4993714;28;20225;-63
2022/12/05 09:58:22;;;;;;;6.47;2.77;;;6.30;99.90;;;;;;5001987;28;20725;-64
2022/12/05 10:00:54;;;;;;;5.00;3.10;;;6.30;99.90;;;;;;5018036;28;20221;-63
2022/12/05 10:03:28;;;;;;;4.50;3.40;;;6.30;99.90;;;;;;5028146;28;20205;-64
2022/12/05 10:06:06;;;;;;;5.70;2.90;;;6.30;99.90;;;;;;5016473;28;20674;-63
2022/12/05 10:08:40;;;;;;;6.33;2.77;;;6.30;99.90;;;;;;5027372;28;20204;-64
2022/12/05 10:11:13;;;;;;;6.07;2.83;;;6.30;99.90;;;;;;4998165;28;20229;-64
2022/12/05 10:13:52;;;;;;;8.47;3.03;;;6.30;99.90;;;;;;5029536;28;20200;-64
2022/12/05 10:16:29;;;;;;;6.03;3.30;;;6.30;99.90;;;;;;5027968;28;20676;-64
2022/12/05 10:19:00;;;;;;;3.17;2.70;;;6.30;99.90;;;;;;5026514;28;20872;-64
2022/12/05 10:21:33;;;;;;;5.30;2.73;;;6.30;99.90;;;;;;5020537;28;20743;-64
2022/12/05 10:24:02;;;;;;;3.83;2.90;;;6.30;99.90;;;;;;5027928;28;20284;-64
2022/12/05 10:26:32;;;;;;;2.97;2.67;;;6.40;99.90;;;;;;5004599;28;20266;-64
2022/12/05 10:29:11;;;;;;;4.47;2.70;;;6.40;99.90;;;;;;5027906;28;20207;-64
2022/12/05 10:31:41;;;;;;;6.03;2.83;;;6.40;99.90;;;;;;5028365;28;20570;-64
2022/12/05 10:34:16;;;;;;;2.73;2.37;;;6.40;99.90;;;;;;5028413;28;20672;-64
2022/12/05 10:36:50;;;;;;;5.47;2.90;;;6.30;99.90;;;;;;5015068;28;20234;-64
2022/12/05 10:39:18;;;;;;;3.50;2.87;;;6.40;99.90;;;;;;5026456;28;20197;-64
2022/12/05 10:41:45;;;;;;;2.90;2.37;;;6.30;99.90;;;;;;5005361;28;20207;-65
2022/12/05 10:44:11;;;;;;;3.73;3.00;;;6.30;99.90;;;;;;5025799;28;20226;-64
2022/12/05 10:46:40;;;;;;;5.00;2.80;;;6.40;99.90;;;;;;5001795;28;20223;-64
2022/12/05 10:49:11;;;;;;;4.90;3.23;;;6.40;99.90;;;;;;5020915;28;20220;-64
2022/12/05 10:51:39;;;;;;;5.70;3.30;;;6.40;99.90;;;;;;5007249;28;20228;-64
2022/12/05 10:54:16;;;;;;;7.60;3.60;;;6.30;99.90;;;;;;4999434;28;20225;-64
2022/12/05 10:56:45;;;;;;;7.70;5.20;;;6.40;99.90;;;;;;5009387;28;20220;-65
2022/12/05 10:59:14;;;;;;;8.80;4.73;;;6.40;99.90;;;;;;5012198;28;20232;-63
2022/12/05 11:01:47;;;;;;;11.67;5.80;;;6.40;99.90;;;;;;5021336;28;20228;-64
2022/12/05 11:04:24;;;;;;;16.50;6.57;;;6.30;99.90;;;;;;5020922;28;20224;-64
2022/12/05 11:06:53;;;;;;;21.13;7.43;;;6.30;99.90;;;;;;5008819;28;20356;-64
2022/12/05 11:09:22;;;;;;;15.27;7.07;;;6.30;99.90;;;;;;5010440;28;20212;-63
2022/12/05 11:12:15;;;;;;;21.27;7.80;;;6.20;99.90;;;;;;4994566;28;20237;-65
2022/12/05 11:14:54;;;;;;;18.23;8.23;;;6.20;99.90;;;;;;5020098;28;20777;-64
2022/12/05 11:17:27;;;;;;;22.97;8.67;;;6.20;99.90;;;;;;5021677;28;20197;-64
2022/12/05 11:19:54;;;;;;;17.50;8.23;;;6.20;99.90;;;;;;5017006;28;20201;-63
2022/12/05 11:22:30;;;;;;;16.87;7.60;;;6.10;99.90;;;;;;5010746;28;20203;-64
2022/12/05 11:24:57;;;;;;;20.50;8.47;;;6.20;99.90;;;;;;5010451;28;20212;-64
2022/12/05 11:27:28;;;;;;;15.13;7.37;;;6.10;99.90;;;;;;4999899;28;20210;-63
2022/12/05 11:30:01;;;;;;;18.30;8.43;;;6.10;99.90;;;;;;5025203;28;20197;-64
2022/12/05 11:32:32;;;;;;;24.60;9.33;;;6.10;99.90;;;;;;5030880;28;20233;-64
2022/12/05 11:35:08;;;;;;;17.13;8.60;;;6.10;99.90;;;;;;5025944;28;20226;-64
2022/12/05 11:37:40;;;;;;;17.67;8.43;;;6.10;99.90;;;;;;5014909;28;20752;-63
2022/12/05 11:40:16;;;;;;;17.73;8.17;;;6.10;99.90;;;;;;5009900;28;20205;-63
2022/12/05 11:43:00;;;;;;;20.20;8.33;;;6.10;99.90;;;;;;5018241;28;20668;-63
2022/12/05 11:45:48;;;;;;;21.77;9.43;;;6.10;99.90;;;;;;5024218;28;20204;-64
2022/12/05 11:48:38;;;;;;;22.17;9.73;;;6.10;99.90;;;;;;5020450;28;20190;-64
2022/12/05 11:51:26;;;;;;;19.27;9.13;;;6.10;99.90;;;;;;5012534;28;20312;-64
2022/12/05 11:54:29;;;;;;;23.83;9.70;;;6.10;99.90;;;;;;5012065;28;20205;-64
2022/12/05 11:57:00;;;;;;;24.70;9.13;;;6.10;99.90;;;;;;5003525;22;20231;-65
2022/12/05 11:59:43;;;;;;;21.60;8.17;;;6.10;99.90;;;;;;5010075;28;20512;-63
2022/12/05 12:02:24;;;;;;;19.77;8.63;;;6.00;99.90;;;;;;5034075;28;20343;-64
2022/12/05 12:04:58;;;;;;;23.13;9.00;;;6.10;99.90;;;;;;5044170;28;20200;-64
2022/12/05 12:07:37;;;;;;;22.07;8.57;;;6.10;99.90;;;;;;5045431;28;20196;-63
2022/12/05 12:10:20;;;;;;;18.60;7.50;;;6.10;99.90;;;;;;5022680;28;20337;-63
2022/12/05 12:13:00;;;;;;;21.07;10.07;;;6.10;99.90;;;;;;5038601;28;20220;-63
2022/12/05 12:15:43;;;;;;;17.97;8.47;;;6.10;99.90;;;;;;5009750;28;20213;-63
2022/12/05 12:18:20;;;;;;;18.83;10.00;;;5.90;99.90;;;;;;5024019;28;20259;-65
2022/12/05 12:21:04;;;;;;;20.77;9.73;;;5.90;99.90;;;;;;5029652;28;20220;-65
2022/12/05 12:23:43;;;;;;;24.63;9.93;;;5.90;99.90;;;;;;5043691;28;20204;-66
2022/12/05 12:26:14;;;;;;;20.83;9.60;;;5.80;99.90;;;;;;5039568;28;20339;-65
2022/12/05 12:28:53;;;;;;;25.93;9.27;;;5.90;99.90;;;;;;5016322;28;20197;-64
2022/12/05 12:31:42;;;;;;;16.93;8.57;;;5.80;99.90;;;;;;5038123;28;20205;-65
2022/12/05 12:35:04;;;;;;;20.73;8.23;;;5.80;99.90;;;;;;5038919;28;20209;-64
2022/12/05 12:37:42;;;;;;;21.87;10.10;;;5.80;99.90;;;;;;4973990;28;20664;-64
2022/12/05 12:40:15;;;;;;;24.27;10.00;;;5.80;99.90;;;;;;4961567;28;20579;-65
2022/12/05 12:42:56;;;;;;;25.33;11.57;;;5.80;99.90;;;;;;4969215;28;20226;-64
2022/12/05 12:45:47;;;;;;;28.97;10.83;;;5.70;99.90;;;;;;4921220;28;20222;-65
2022/12/05 12:48:32;;;;;;;19.23;9.47;;;5.70;99.90;;;;;;4913570;28;20238;-65
2022/12/05 12:51:02;;;;;;;20.37;9.70;;;5.70;99.90;;;;;;4970573;28;20760;-64
2022/12/05 12:53:51;;;;;;;24.07;9.20;;;5.70;99.90;;;;;;4964037;28;20226;-65
2022/12/05 12:56:35;;;;;;;28.33;10.57;;;5.50;99.90;;;;;;5002485;28;20334;-65
2022/12/05 12:59:18;;;;;;;25.50;10.93;;;5.30;99.90;;;;;;5030570;28;24734;-66
2022/12/05 13:01:52;;;;;;;24.50;11.50;;;5.60;99.90;;;;;;5014367;28;20221;-67
2022/12/05 13:04:24;;;;;;;21.33;10.13;;;5.60;99.90;;;;;;5009283;28;20225;-66
2022/12/05 13:06:56;;;;;;;21.00;9.90;;;5.60;99.90;;;;;;5035765;28;20217;-62
2022/12/05 13:09:30;;;;;;;26.97;10.07;;;5.50;99.90;;;;;;5017316;28;20229;-65
2022/12/05 13:12:02;;;;;;;22.90;9.00;;;5.50;99.90;;;;;;5017448;28;20221;-65
2022/12/05 13:14:30;;;;;;;26.27;10.93;;;5.50;99.90;;;;;;5046630;28;20214;-65